Time;durP1;ratioP1;P1;durP2;ratioP2;P2;SDS_P1;SDS_P2;PMS_P1;PMS_P2;Temp;Humidity;BMP_temperature;BMP_pressure;BME280_temperature;BME280_humidity;BME280_pressure;Samples;Min_cycle;Max_cycle;Signal;HPM_P1;HPM_P2
2023/06/13 00:01:35;;;;;;;;;;;21.60;50.50;;;;;;5018050;28;20360;-75
2023/06/13 00:04:02;;;;;;;;;;;21.50;50.70;;;;;;5035162;28;19913;-75
2023/06/13 00:06:29;;;;;;;;;;;21.40;50.80;;;;;;5035674;28;19905;-74
2023/06/13 00:08:56;;;;;;;;;;;21.30;50.90;;;;;;5035458;28;20280;-75
2023/06/13 00:11:21;;;;;;;;;;;21.30;51.10;;;;;;5017309;28;19909;-75
2023/06/13 00:13:47;;;;;;;;;;;21.20;51.20;;;;;;5017276;28;20407;-75
2023/06/13 00:16:13;;;;;;;;;;;21.20;52.00;;;;;;5034902;28;20003;-74
2023/06/13 00:18:39;;;;;;;;;;;21.10;51.00;;;;;;5034727;28;19913;-74
2023/06/13 00:21:06;;;;;;;;;;;21.10;51.50;;;;;;5017096;28;20277;-74
2023/06/13 00:23:31;;;;;;;;;;;21.00;52.20;;;;;;5034775;28;19952;-74
2023/06/13 00:25:57;;;;;;;;;;;21.00;52.10;;;;;;5034685;28;20364;-75
2023/06/13 00:28:22;;;;;;;;;;;20.90;51.70;;;;;;5033832;28;19904;-75
2023/06/13 00:30:48;;;;;;;;;;;20.80;51.40;;;;;;5016762;28;20007;-75
2023/06/13 00:33:17;;;;;;;;;;;20.80;52.10;;;;;;5016761;28;19905;-75
2023/06/13 00:35:43;;;;;;;;;;;20.70;52.30;;;;;;5034535;28;19992;-75
2023/06/13 00:38:08;;;;;;;;;;;20.70;52.20;;;;;;5034905;28;20377;-75
2023/06/13 00:40:35;;;;;;;;;;;20.60;51.90;;;;;;5034441;28;20106;-75
2023/06/13 00:43:00;;;;;;;;;;;20.60;52.60;;;;;;5034468;28;19912;-75
2023/06/13 00:45:27;;;;;;;;;;;20.60;52.80;;;;;;5034325;28;19905;-74
2023/06/13 00:47:54;;;;;;;;;;;20.50;52.60;;;;;;5016634;28;19952;-74
2023/06/13 00:50:21;;;;;;;;;;;20.50;52.10;;;;;;5034177;28;19905;-74
2023/06/13 00:52:47;;;;;;;;;;;20.50;53.00;;;;;;5034192;28;19905;-74
2023/06/13 00:55:14;;;;;;;;;;;20.40;52.90;;;;;;5034116;28;19905;-74
2023/06/13 00:57:40;;;;;;;;;;;20.40;53.30;;;;;;5034224;28;20000;-74
2023/06/13 01:00:05;;;;;;;;;;;20.30;52.90;;;;;;5033990;28;20027;-74
2023/06/13 01:02:33;;;;;;;;;;;20.30;53.40;;;;;;5034136;28;19940;-75
2023/06/13 01:05:02;;;;;;;;;;;20.20;53.70;;;;;;5034070;28;20417;-74
2023/06/13 01:07:33;;;;;;;;;;;20.20;53.80;;;;;;5034000;28;19928;-74
2023/06/13 01:09:59;;;;;;;;;;;20.10;53.40;;;;;;5033801;28;19905;-74
2023/06/13 01:12:40;;;;;;;;;;;20.10;54.00;;;;;;5033876;28;19909;-75
2023/06/13 01:15:13;;;;;;;;;;;20.00;53.80;;;;;;5015715;28;19909;-75
2023/06/13 01:17:49;;;;;;;;;;;19.90;54.30;;;;;;5033721;28;19909;-75
2023/06/13 01:20:16;;;;;;;;;;;19.90;53.90;;;;;;5033595;28;20340;-74
2023/06/13 01:23:02;;;;;;;;;;;19.80;54.80;;;;;;5033773;28;19905;-74
2023/06/13 01:25:43;;;;;;;;;;;19.80;54.90;;;;;;5033803;28;20364;-75
2023/06/13 01:28:13;;;;;;;;;;;19.70;54.90;;;;;;5033957;28;19912;-74
2023/06/13 01:30:39;;;;;;;;;;;19.60;54.70;;;;;;5033175;28;20007;-74
2023/06/13 01:33:05;;;;;;;;;;;19.60;55.10;;;;;;5033583;28;20057;-74
2023/06/13 01:35:31;;;;;;;;;;;19.60;55.80;;;;;;5033614;28;20364;-74
2023/06/13 01:37:57;;;;;;;;;;;19.50;55.50;;;;;;5034168;28;20043;-74
2023/06/13 01:40:22;;;;;;;;;;;19.50;55.50;;;;;;5019688;28;19905;-74
2023/06/13 01:42:47;;;;;;;;;;;19.50;56.20;;;;;;5040124;28;19905;-74
2023/06/13 01:45:13;;;;;;;;;;;19.40;56.10;;;;;;5040196;28;19912;-74
2023/06/13 01:47:45;;;;;;;;;;;19.30;55.90;;;;;;5040108;28;19912;-74
2023/06/13 01:50:30;;;;;;;;;;;19.30;56.10;;;;;;5040184;28;19912;-74
2023/06/13 01:53:02;;;;;;;;;;;19.20;56.90;;;;;;5022395;28;20360;-74
2023/06/13 01:55:37;;;;;;;;;;;19.20;57.30;;;;;;5040048;28;20352;-74
2023/06/13 01:58:05;;;;;;;;;;;19.10;57.20;;;;;;5040043;28;20284;-75
2023/06/13 02:00:31;;;;;;;;;;;19.00;57.40;;;;;;5022201;28;19905;-75
2023/06/13 02:02:58;;;;;;;;;;;19.00;57.40;;;;;;5039870;28;19905;-74
2023/06/13 02:05:25;;;;;;;;;;;19.00;57.70;;;;;;5040453;28;19909;-74
2023/06/13 02:07:56;;;;;;;;;;;18.90;57.80;;;;;;5040022;28;20364;-75
2023/06/13 02:10:22;;;;;;;;;;;18.80;57.90;;;;;;5023249;28;19905;-75
2023/06/13 02:12:48;;;;;;;;;;;18.80;58.10;;;;;;5039875;28;19905;-74
2023/06/13 02:15:13;;;;;;;;;;;18.80;58.50;;;;;;5022175;28;19911;-75
2023/06/13 02:17:39;;;;;;;;;;;18.70;58.60;;;;;;5039847;28;20384;-75
2023/06/13 02:20:06;;;;;;;;;;;18.60;58.50;;;;;;5021914;28;19956;-75
2023/06/13 02:22:32;;;;;;;;;;;18.60;58.80;;;;;;5039862;28;19955;-75
2023/06/13 02:24:58;;;;;;;;;;;18.50;58.80;;;;;;5039850;28;19905;-75
2023/06/13 02:27:23;;;;;;;;;;;18.50;59.00;;;;;;5040259;28;19963;-75
2023/06/13 02:29:49;;;;;;;;;;;18.40;59.00;;;;;;5039629;28;20357;-75
2023/06/13 02:32:15;;;;;;;;;;;18.40;59.40;;;;;;5039817;28;19904;-75
2023/06/13 02:34:40;;;;;;;;;;;18.40;59.60;;;;;;5039763;28;20315;-75
2023/06/13 02:37:06;;;;;;;;;;;18.30;59.60;;;;;;5039706;28;19905;-75
2023/06/13 02:39:31;;;;;;;;;;;18.20;59.70;;;;;;5021916;28;19905;-75
2023/06/13 02:41:57;;;;;;;;;;;18.20;60.20;;;;;;5021767;28;19905;-75
2023/06/13 02:44:22;;;;;;;;;;;18.20;60.00;;;;;;5038384;28;19905;-75
2023/06/13 02:46:47;;;;;;;;;;;18.20;60.50;;;;;;5040342;28;20353;-75
2023/06/13 02:49:13;;;;;;;;;;;18.20;60.40;;;;;;5021858;28;20367;-75
2023/06/13 02:51:38;;;;;;;;;;;18.10;60.40;;;;;;5019556;28;20352;-74
2023/06/13 02:54:04;;;;;;;;;;;18.00;60.60;;;;;;5035192;28;20323;-75
2023/06/13 02:56:29;;;;;;;;;;;18.00;60.80;;;;;;5036361;28;19905;-75
2023/06/13 02:58:55;;;;;;;;;;;17.90;61.00;;;;;;5036341;28;19916;-75
2023/06/13 03:01:20;;;;;;;;;;;17.90;61.40;;;;;;5036337;28;19905;-75
2023/06/13 03:03:49;;;;;;;;;;;17.80;61.50;;;;;;5036394;28;19913;-75
2023/06/13 03:06:17;;;;;;;;;;;17.80;61.60;;;;;;5020043;28;19911;-75
2023/06/13 03:08:43;;;;;;;;;;;17.80;62.00;;;;;;5036718;28;19905;-75
2023/06/13 03:11:09;;;;;;;;;;;17.70;62.10;;;;;;5036070;28;19927;-75
2023/06/13 03:13:34;;;;;;;;;;;17.70;62.90;;;;;;5036201;28;20092;-75
2023/06/13 03:16:02;;;;;;;;;;;17.60;62.70;;;;;;5036163;28;19905;-75
2023/06/13 03:18:27;;;;;;;;;;;17.60;62.50;;;;;;5035879;28;19909;-75
2023/06/13 03:20:53;;;;;;;;;;;17.50;62.90;;;;;;5035969;28;20399;-75
2023/06/13 03:23:18;;;;;;;;;;;17.60;63.20;;;;;;5035967;28;19966;-75
2023/06/13 03:25:44;;;;;;;;;;;17.60;64.10;;;;;;5035886;28;19905;-75
2023/06/13 03:28:10;;;;;;;;;;;17.50;63.80;;;;;;5035919;28;19909;-75
2023/06/13 03:30:36;;;;;;;;;;;17.40;64.00;;;;;;5035810;28;20050;-75
2023/06/13 03:33:02;;;;;;;;;;;17.40;63.90;;;;;;5035753;28;20058;-75
2023/06/13 03:35:27;;;;;;;;;;;17.40;64.70;;;;;;5035713;28;19944;-75
2023/06/13 03:37:53;;;;;;;;;;;17.30;64.50;;;;;;5036168;28;20007;-75
2023/06/13 03:40:18;;;;;;;;;;;17.20;64.90;;;;;;5035535;28;19995;-75
2023/06/13 03:42:44;;;;;;;;;;;17.20;65.10;;;;;;5035588;28;19909;-75
2023/06/13 03:45:10;;;;;;;;;;;17.20;65.10;;;;;;5035487;28;20399;-75
2023/06/13 03:47:35;;;;;;;;;;;17.20;65.10;;;;;;5036061;28;19945;-75
2023/06/13 03:50:01;;;;;;;;;;;17.20;65.70;;;;;;5035362;28;19951;-75
2023/06/13 03:52:26;;;;;;;;;;;17.20;66.00;;;;;;5035484;28;19912;-75
2023/06/13 03:54:52;;;;;;;;;;;17.20;65.50;;;;;;5035346;28;19905;-75
2023/06/13 03:57:17;;;;;;;;;;;17.10;64.90;;;;;;5035199;28;19913;-75
2023/06/13 03:59:43;;;;;;;;;;;17.20;65.70;;;;;;5035384;28;19912;-75
2023/06/13 04:02:08;;;;;;;;;;;17.20;65.30;;;;;;5035087;28;19905;-74
2023/06/13 04:04:34;;;;;;;;;;;17.20;65.70;;;;;;5034024;28;19928;-75
2023/06/13 04:07:04;;;;;;;;;;;17.20;65.90;;;;;;5035262;28;19905;-75
2023/06/13 04:09:29;;;;;;;;;;;17.20;65.50;;;;;;5035001;28;19905;-75
2023/06/13 04:11:55;;;;;;;;;;;17.30;65.80;;;;;;5034963;28;19916;-75
2023/06/13 04:14:20;;;;;;;;;;;17.30;66.30;;;;;;5035022;28;19912;-75
2023/06/13 04:16:46;;;;;;;;;;;17.30;65.50;;;;;;5034918;28;19905;-75
2023/06/13 04:19:18;;;;;;;;;;;17.30;65.40;;;;;;5016842;28;19913;-75
2023/06/13 04:21:47;;;;;;;;;;;17.30;65.90;;;;;;5034853;28;19912;-75
2023/06/13 04:24:15;;;;;;;;;;;17.40;66.10;;;;;;5034738;28;19912;-75
2023/06/13 04:26:41;;;;;;;;;;;17.40;66.10;;;;;;5034732;28;19905;-75
2023/06/13 04:29:09;;;;;;;;;;;17.50;66.00;;;;;;5034613;28;20323;-75
2023/06/13 04:31:35;;;;;;;;;;;17.60;65.70;;;;;;5034685;28;19905;-75
2023/06/13 04:34:05;;;;;;;;;;;17.60;65.20;;;;;;5035483;28;19905;-75
2023/06/13 04:36:33;;;;;;;;;;;17.70;65.60;;;;;;5016732;28;20408;-75
2023/06/13 04:39:06;;;;;;;;;;;17.70;65.50;;;;;;5033084;28;19916;-75
2023/06/13 04:41:33;;;;;;;;;;;17.70;65.50;;;;;;5034432;28;19978;-75
2023/06/13 04:43:59;;;;;;;;;;;17.90;65.00;;;;;;5034474;28;19947;-75
2023/06/13 04:46:24;;;;;;;;;;;17.80;65.00;;;;;;5034498;28;19905;-75
2023/06/13 04:48:50;;;;;;;;;;;18.00;64.30;;;;;;5034324;28;19912;-75
2023/06/13 04:51:15;;;;;;;;;;;18.00;63.80;;;;;;5034239;28;19916;-75
2023/06/13 04:53:41;;;;;;;;;;;18.10;64.40;;;;;;5034204;28;20020;-75
2023/06/13 04:56:06;;;;;;;;;;;18.00;64.80;;;;;;5034199;28;20356;-75
2023/06/13 04:58:32;;;;;;;;;;;18.20;64.70;;;;;;5033971;28;20283;-75
2023/06/13 05:00:59;;;;;;;;;;;18.20;64.60;;;;;;5034106;28;20393;-75
2023/06/13 05:03:25;;;;;;;;;;;18.30;64.20;;;;;;5034062;28;19916;-74
2023/06/13 05:05:51;;;;;;;;;;;18.30;64.60;;;;;;5033916;28;19905;-74
2023/06/13 05:08:19;;;;;;;;;;;18.50;64.90;;;;;;5034013;28;19974;-74
2023/06/13 05:10:45;;;;;;;;;;;18.60;64.30;;;;;;5034443;28;20447;-74
2023/06/13 05:13:11;;;;;;;;;;;18.70;64.20;;;;;;5033966;28;19909;-74
2023/06/13 05:15:38;;;;;;;;;;;18.80;63.80;;;;;;5016087;28;19909;-74
2023/06/13 05:18:06;;;;;;;;;;;19.00;64.30;;;;;;5032548;28;19935;-74
2023/06/13 05:20:35;;;;;;;;;;;19.20;63.10;;;;;;5033724;28;20304;-74
2023/06/13 05:23:01;;;;;;;;;;;19.30;63.40;;;;;;5033743;28;19905;-74
2023/06/13 05:25:27;;;;;;;;;;;19.50;62.90;;;;;;5033612;28;19913;-74
2023/06/13 05:27:53;;;;;;;;;;;19.50;62.20;;;;;;5034072;28;19999;-74
2023/06/13 05:30:20;;;;;;;;;;;19.70;61.90;;;;;;5033679;28;19936;-75
2023/06/13 05:32:46;;;;;;;;;;;19.70;62.00;;;;;;5033617;28;19909;-75
2023/06/13 05:35:12;;;;;;;;;;;19.70;61.60;;;;;;5034209;28;19905;-75
2023/06/13 05:37:41;;;;;;;;;;;19.70;61.70;;;;;;5034104;28;19916;-75
2023/06/13 05:40:07;;;;;;;;;;;19.70;61.40;;;;;;5034205;28;19912;-75
2023/06/13 05:42:34;;;;;;;;;;;19.80;62.30;;;;;;5033828;28;20374;-75
2023/06/13 05:45:03;;;;;;;;;;;19.80;61.90;;;;;;5033594;28;19909;-75
2023/06/13 05:47:29;;;;;;;;;;;19.90;62.00;;;;;;5033581;28;19905;-75
2023/06/13 05:49:54;;;;;;;;;;;20.00;62.10;;;;;;5033451;28;19905;-75
2023/06/13 05:52:20;;;;;;;;;;;20.10;62.20;;;;;;5033402;28;19967;-75
2023/06/13 05:54:46;;;;;;;;;;;20.10;61.60;;;;;;5033392;28;19988;-75
2023/06/13 05:57:12;;;;;;;;;;;20.30;61.40;;;;;;5015319;28;19944;-75
2023/06/13 05:59:37;;;;;;;;;;;20.40;61.30;;;;;;5033357;28;19947;-75
2023/06/13 06:02:03;;;;;;;;;;;20.50;61.40;;;;;;5031997;28;19912;-74
2023/06/13 06:04:29;;;;;;;;;;;20.60;60.90;;;;;;5013990;28;20285;-74
2023/06/13 06:06:54;;;;;;;;;;;20.70;60.20;;;;;;5032463;28;20380;-74
2023/06/13 06:09:20;;;;;;;;;;;20.80;60.30;;;;;;5032860;28;19905;-74
2023/06/13 06:11:45;;;;;;;;;;;20.90;60.50;;;;;;5032545;28;19909;-74
2023/06/13 06:14:11;;;;;;;;;;;21.00;59.90;;;;;;5033718;28;19904;-75
2023/06/13 06:16:36;;;;;;;;;;;21.20;59.40;;;;;;5033250;28;19905;-75
2023/06/13 06:19:02;;;;;;;;;;;21.30;59.90;;;;;;5032929;28;19917;-75
2023/06/13 06:21:28;;;;;;;;;;;21.40;58.90;;;;;;5033307;28;19905;-75
2023/06/13 06:23:53;;;;;;;;;;;21.50;59.20;;;;;;5032021;28;19952;-74
2023/06/13 06:26:20;;;;;;;;;;;21.60;59.20;;;;;;5033503;28;19905;-74
2023/06/13 06:28:46;;;;;;;;;;;21.70;58.60;;;;;;5036964;28;19915;-74
2023/06/13 06:31:11;;;;;;;;;;;21.90;58.50;;;;;;5037008;28;20425;-74
2023/06/13 06:33:37;;;;;;;;;;;22.00;57.80;;;;;;5036934;28;19905;-74
2023/06/13 06:36:02;;;;;;;;;;;22.20;57.20;;;;;;5019039;28;20008;-74
2023/06/13 06:38:28;;;;;;;;;;;22.30;57.60;;;;;;5036543;28;19909;-74
2023/06/13 06:40:53;;;;;;;;;;;22.40;57.30;;;;;;5036594;28;19974;-74
2023/06/13 06:43:19;;;;;;;;;;;22.50;57.10;;;;;;5036745;28;19935;-75
2023/06/13 06:45:45;;;;;;;;;;;22.70;56.70;;;;;;5036585;28;20380;-74
2023/06/13 06:48:10;;;;;;;;;;;22.80;56.00;;;;;;5036571;28;19995;-75
2023/06/13 06:50:36;;;;;;;;;;;23.00;55.60;;;;;;5036525;28;20380;-75
2023/06/13 06:53:02;;;;;;;;;;;23.10;55.50;;;;;;5037035;28;19905;-75
2023/06/13 06:55:27;;;;;;;;;;;23.20;54.90;;;;;;5018690;28;19951;-75
2023/06/13 06:57:53;;;;;;;;;;;23.30;55.00;;;;;;5036843;28;20390;-74
2023/06/13 07:00:22;;;;;;;;;;;23.50;55.00;;;;;;5018617;28;19909;-74
2023/06/13 07:02:47;;;;;;;;;;;23.70;55.10;;;;;;5018573;28;20443;-75
2023/06/13 07:05:15;;;;;;;;;;;23.80;54.60;;;;;;5036325;28;19948;-74
2023/06/13 07:07:42;;;;;;;;;;;23.90;54.60;;;;;;5036231;28;19905;-74
2023/06/13 07:10:08;;;;;;;;;;;24.10;52.70;;;;;;5036128;28;19906;-74
2023/06/13 07:12:34;;;;;;;;;;;24.20;53.30;;;;;;5036113;28;20394;-74
2023/06/13 07:14:59;;;;;;;;;;;24.30;53.10;;;;;;5018366;28;19941;-74
2023/06/13 07:17:25;;;;;;;;;;;24.40;51.80;;;;;;5036430;28;19924;-75
2023/06/13 07:19:51;;;;;;;;;;;24.50;51.00;;;;;;5036100;28;19917;-75
2023/06/13 07:22:16;;;;;;;;;;;24.70;50.80;;;;;;5035947;28;19905;-74
2023/06/13 07:24:42;;;;;;;;;;;24.70;50.50;;;;;;5035954;28;20249;-74
2023/06/13 07:27:07;;;;;;;;;;;24.90;50.20;;;;;;5035859;28;19993;-74
2023/06/13 07:29:33;;;;;;;;;;;24.90;48.80;;;;;;5035750;28;19932;-74
2023/06/13 07:32:00;;;;;;;;;;;25.00;49.30;;;;;;5035764;28;19905;-75
2023/06/13 07:34:25;;;;;;;;;;;25.20;48.80;;;;;;5035709;28;19916;-74
2023/06/13 07:36:51;;;;;;;;;;;25.20;48.70;;;;;;5017888;28;19935;-75
2023/06/13 07:39:16;;;;;;;;;;;25.30;48.60;;;;;;5035511;28;19909;-75
2023/06/13 07:41:46;;;;;;;;;;;25.40;48.80;;;;;;5036307;28;20340;-75
2023/06/13 07:44:12;;;;;;;;;;;25.50;49.00;;;;;;5017749;28;19905;-74
2023/06/13 07:46:38;;;;;;;;;;;25.80;48.60;;;;;;5035541;28;19966;-74
2023/06/13 07:49:03;;;;;;;;;;;25.80;47.00;;;;;;5035376;28;19911;-74
2023/06/13 07:51:29;;;;;;;;;;;25.90;46.30;;;;;;5035385;28;19905;-74
2023/06/13 07:53:54;;;;;;;;;;;25.90;46.80;;;;;;5035394;28;19909;-74
2023/06/13 07:56:20;;;;;;;;;;;26.00;46.80;;;;;;5035384;28;20425;-74
2023/06/13 07:58:45;;;;;;;;;;;26.00;47.10;;;;;;5035196;28;20288;-74
2023/06/13 08:01:11;;;;;;;;;;;26.10;47.90;;;;;;5035263;28;19905;-74
2023/06/13 08:03:36;;;;;;;;;;;26.30;46.80;;;;;;5035923;28;19905;-75
2023/06/13 08:06:02;;;;;;;;;;;26.40;46.10;;;;;;5035092;28;19905;-74
2023/06/13 08:08:27;;;;;;;;;;;26.50;47.10;;;;;;5035009;28;20319;-74
2023/06/13 08:10:53;;;;;;;;;;;26.40;45.60;;;;;;5035576;28;19905;-74
2023/06/13 08:13:19;;;;;;;;;;;26.50;46.10;;;;;;5035053;28;19951;-74
2023/06/13 08:15:44;;;;;;;;;;;26.60;46.20;;;;;;5017355;28;19905;-74
2023/06/13 08:18:10;;;;;;;;;;;26.60;46.10;;;;;;5017096;28;19959;-74
2023/06/13 08:20:36;;;;;;;;;;;26.70;44.80;;;;;;5016868;28;19916;-74
2023/06/13 08:23:01;;;;;;;;;;;26.80;44.60;;;;;;5034887;28;19905;-74
2023/06/13 08:25:27;;;;;;;;;;;26.90;45.10;;;;;;5017611;28;19909;-74
2023/06/13 08:27:52;;;;;;;;;;;26.90;45.10;;;;;;5034701;28;19933;-75
2023/06/13 08:30:18;;;;;;;;;;;27.00;45.30;;;;;;5034642;28;19912;-74
2023/06/13 08:32:46;;;;;;;;;;;27.20;44.50;;;;;;5034671;28;20325;-74
2023/06/13 08:35:12;;;;;;;;;;;27.30;44.10;;;;;;5034682;28;20352;-74
2023/06/13 08:37:38;;;;;;;;;;;27.30;43.60;;;;;;5034469;28;19909;-74
2023/06/13 08:40:09;;;;;;;;;;;27.30;43.70;;;;;;5034613;28;19905;-76
2023/06/13 08:42:39;;;;;;;;;;;27.30;43.60;;;;;;5034605;28;19996;-74
2023/06/13 08:45:08;;;;;;;;;;;27.40;43.60;;;;;;5034401;28;20284;-74
2023/06/13 08:47:33;;;;;;;;;;;27.50;44.10;;;;;;5016648;28;19959;-74
2023/06/13 08:50:02;;;;;;;;;;;27.60;44.60;;;;;;5033558;28;19905;-74
2023/06/13 08:52:36;;;;;;;;;;;27.60;44.60;;;;;;5033125;28;20288;-74
2023/06/13 08:55:03;;;;;;;;;;;27.70;43.40;;;;;;5034249;28;19909;-74
2023/06/13 08:57:29;;;;;;;;;;;27.80;43.20;;;;;;5034054;28;20414;-74
2023/06/13 08:59:55;;;;;;;;;;;27.80;42.70;;;;;;5034174;28;19948;-74
2023/06/13 09:02:23;;;;;;;;;;;27.90;43.70;;;;;;5034237;28;19959;-75
2023/06/13 09:04:49;;;;;;;;;;;27.90;43.00;;;;;;5034138;28;19958;-74
2023/06/13 09:07:16;;;;;;;;;;;27.90;42.50;;;;;;5034030;28;20360;-74
2023/06/13 09:09:42;;;;;;;;;;;28.00;43.70;;;;;;5016931;28;19964;-74
2023/06/13 09:12:11;;;;;;;;;;;28.00;42.60;;;;;;5016138;28;19950;-75
2023/06/13 09:14:36;;;;;;;;;;;28.00;42.70;;;;;;5033942;28;20268;-75
2023/06/13 09:17:02;;;;;;;;;;;28.10;42.80;;;;;;5016170;28;19912;-75
2023/06/13 09:19:27;;;;;;;;;;;28.20;41.60;;;;;;5016156;28;19924;-75
2023/06/13 09:21:53;;;;;;;;;;;28.30;43.10;;;;;;5033777;28;19905;-73
2023/06/13 09:24:18;;;;;;;;;;;28.30;40.50;;;;;;5033720;28;19912;-73
2023/06/13 09:26:44;;;;;;;;;;;28.20;41.30;;;;;;5033877;28;20361;-74
2023/06/13 09:29:09;;;;;;;;;;;28.20;41.30;;;;;;5033749;28;19912;-74
2023/06/13 09:31:38;;;;;;;;;;;28.30;41.80;;;;;;5034278;28;19997;-74
2023/06/13 09:34:06;;;;;;;;;;;28.30;41.20;;;;;;5034079;28;19955;-74
2023/06/13 09:36:35;;;;;;;;;;;28.30;40.50;;;;;;5033738;28;19905;-74
2023/06/13 09:39:03;;;;;;;;;;;28.30;41.10;;;;;;5033574;28;19971;-74
2023/06/13 09:41:30;;;;;;;;;;;28.30;41.00;;;;;;5033529;28;20004;-74
2023/06/13 09:43:55;;;;;;;;;;;28.30;41.10;;;;;;5033582;28;19908;-74
2023/06/13 09:46:23;;;;;;;;;;;28.50;40.30;;;;;;5033619;28;19905;-74
2023/06/13 09:48:49;;;;;;;;;;;28.50;40.60;;;;;;5015806;28;20000;-76
2023/06/13 09:51:15;;;;;;;;;;;28.60;40.10;;;;;;5033418;28;19912;-76
2023/06/13 09:53:43;;;;;;;;;;;28.70;40.00;;;;;;5033512;28;20408;-76
2023/06/13 09:56:12;;;;;;;;;;;28.70;40.20;;;;;;5033471;28;20338;-76
2023/06/13 09:58:38;;;;;;;;;;;28.70;39.90;;;;;;5015474;28;20386;-75
2023/06/13 10:01:03;;;;;;;;;;;28.70;38.90;;;;;;5017429;28;19913;-76
2023/06/13 10:03:29;;;;;;;;;;;28.80;38.90;;;;;;5019649;28;20047;-75
2023/06/13 10:05:57;;;;;;;;;;;28.90;38.90;;;;;;5019619;28;20291;-76
2023/06/13 10:08:23;;;;;;;;;;;29.00;39.40;;;;;;5037291;28;19905;-76
2023/06/13 10:10:49;;;;;;;;;;;29.00;38.80;;;;;;5037235;28;19905;-76
2023/06/13 10:13:15;;;;;;;;;;;29.30;39.40;;;;;;5037281;28;19911;-76
2023/06/13 10:15:47;;;;;;;;;;;29.50;38.40;;;;;;5019471;28;19905;-76
2023/06/13 10:18:13;;;;;;;;;;;29.60;37.30;;;;;;5037440;28;19995;-75
2023/06/13 10:20:39;;;;;;;;;;;29.60;38.10;;;;;;5037175;28;20375;-76
2023/06/13 10:23:08;;;;;;;;;;;29.60;38.10;;;;;;5037054;28;19905;-76
2023/06/13 10:25:34;;;;;;;;;;;29.80;39.10;;;;;;5037088;28;20355;-76
2023/06/13 10:28:04;;;;;;;;;;;29.90;38.40;;;;;;5037654;28;19944;-76
2023/06/13 10:30:31;;;;;;;;;;;29.90;38.90;;;;;;5036963;28;19905;-76
2023/06/13 10:32:56;;;;;;;;;;;29.90;39.00;;;;;;5036910;28;19912;-76
2023/06/13 10:35:40;;;;;;;;;;;30.10;38.90;;;;;;5037043;28;20384;-75
2023/06/13 10:38:14;;;;;;;;;;;30.20;39.10;;;;;;5037463;28;20008;-76
2023/06/13 10:41:04;;;;;;;;;;;30.10;37.80;;;;;;5037284;28;20000;-75
2023/06/13 10:43:30;;;;;;;;;;;30.20;39.00;;;;;;5037434;28;19912;-76
2023/06/13 10:45:57;;;;;;;;;;;30.40;39.20;;;;;;5036787;28;19909;-75
2023/06/13 10:48:36;;;;;;;;;;;30.50;38.50;;;;;;5036640;28;20360;-75
2023/06/13 10:51:02;;;;;;;;;;;30.70;38.90;;;;;;5036728;28;19911;-76
2023/06/13 10:53:28;;;;;;;;;;;30.80;38.50;;;;;;5018929;28;19999;-76
2023/06/13 10:56:02;;;;;;;;;;;30.90;38.50;;;;;;5036523;28;19912;-76
2023/06/13 10:58:28;;;;;;;;;;;;;;;;;;5036907;28;19909;-76
2023/06/13 11:00:54;;;;;;;;;;;30.90;38.10;;;;;;5036488;28;20301;-76
2023/06/13 11:03:19;;;;;;;;;;;31.00;38.10;;;;;;5036133;28;19948;-76
2023/06/13 11:05:45;;;;;;;;;;;31.00;37.90;;;;;;5036320;28;19909;-75
2023/06/13 11:08:14;;;;;;;;;;;31.00;37.80;;;;;;5035888;28;19988;-75
2023/06/13 11:10:41;;;;;;;;;;;31.20;37.60;;;;;;5036348;28;19912;-76
2023/06/13 11:13:15;;;;;;;;;;;31.20;37.80;;;;;;5036079;28;19944;-76
2023/06/13 11:15:41;;;;;;;;;;;31.20;37.10;;;;;;5036725;28;19912;-73
2023/06/13 11:18:06;;;;;;;;;;;31.40;37.40;;;;;;5035992;28;19909;-74
2023/06/13 11:20:32;;;;;;;;;;;31.50;37.30;;;;;;5036097;28;19998;-73
2023/06/13 11:22:57;;;;;;;;;;;31.70;36.90;;;;;;5018425;28;19912;-74
2023/06/13 11:25:23;;;;;;;;;;;31.90;36.50;;;;;;5018398;28;19955;-73
2023/06/13 11:27:49;;;;;;;;;;;32.10;36.60;;;;;;5035941;28;19909;-73
2023/06/13 11:30:14;;;;;;;;;;;32.20;36.50;;;;;;5035927;28;19928;-74
2023/06/13 11:32:42;;;;;;;;;;;32.20;36.50;;;;;;5036095;28;20299;-74
2023/06/13 11:35:08;;;;;;;;;;;32.50;36.80;;;;;;5035957;28;19905;-73
2023/06/13 11:37:45;;;;;;;;;;;32.70;36.40;;;;;;5035776;28;19999;-74
2023/06/13 11:40:18;;;;;;;;;;;32.70;35.80;;;;;;5036465;28;20323;-74
2023/06/13 11:42:44;;;;;;;;;;;32.70;36.10;;;;;;5035919;28;19999;-74
2023/06/13 11:45:09;;;;;;;;;;;32.80;35.60;;;;;;5035687;28;19944;-74
2023/06/13 11:47:35;;;;;;;;;;;32.80;36.10;;;;;;5035986;28;20423;-76
2023/06/13 11:50:00;;;;;;;;;;;32.80;36.10;;;;;;5017758;28;19905;-76
2023/06/13 11:52:26;;;;;;;;;;;33.00;36.30;;;;;;5035546;28;20467;-75
2023/06/13 11:54:52;;;;;;;;;;;33.00;35.40;;;;;;5035572;28;20023;-76
2023/06/13 11:57:17;;;;;;;;;;;33.20;36.00;;;;;;5035506;28;19905;-76
2023/06/13 11:59:43;;;;;;;;;;;33.30;35.70;;;;;;5035504;28;19955;-77
2023/06/13 12:02:09;;;;;;;;;;;33.50;35.90;;;;;;5035243;28;19958;-76
2023/06/13 12:04:35;;;;;;;;;;;33.70;35.60;;;;;;5035475;28;20437;-75
2023/06/13 12:07:02;;;;;;;;;;;33.80;35.30;;;;;;5035330;28;19995;-75
2023/06/13 12:09:28;;;;;;;;;;;34.00;35.40;;;;;;5017554;28;20391;-76
2023/06/13 12:11:53;;;;;;;;;;;34.10;35.30;;;;;;5035257;28;19940;-76
2023/06/13 12:14:20;;;;;;;;;;;34.20;35.50;;;;;;5035179;28;20019;-76
2023/06/13 12:16:46;;;;;;;;;;;34.00;34.80;;;;;;5035141;28;19915;-76
2023/06/13 12:19:12;;;;;;;;;;;34.10;35.60;;;;;;5035255;28;19920;-76
2023/06/13 12:21:38;;;;;;;;;;;34.30;35.60;;;;;;5034938;28;19905;-76
2023/06/13 12:24:06;;;;;;;;;;;34.40;34.50;;;;;;5033922;28;19995;-76
2023/06/13 12:26:33;;;;;;;;;;;34.40;35.30;;;;;;5034686;28;19958;-76
2023/06/13 12:29:01;;;;;;;;;;;34.80;34.30;;;;;;5034655;28;19909;-76
2023/06/13 12:31:28;;;;;;;;;;;34.90;34.80;;;;;;5017227;28;19905;-76
2023/06/13 12:34:03;;;;;;;;;;;35.00;35.10;;;;;;5016984;28;19975;-76
2023/06/13 12:36:32;;;;;;;;;;;34.90;34.50;;;;;;5016892;28;20373;-76
2023/06/13 12:38:59;;;;;;;;;;;35.00;34.60;;;;;;5034293;28;19916;-75
2023/06/13 12:41:26;;;;;;;;;;;35.00;35.60;;;;;;5016804;28;19909;-75
2023/06/13 12:43:51;;;;;;;;;;;35.20;34.80;;;;;;5034434;28;20288;-76
2023/06/13 12:46:17;;;;;;;;;;;35.30;35.20;;;;;;5034589;28;19905;-76
2023/06/13 12:48:43;;;;;;;;;;;35.50;34.50;;;;;;5016789;28;19940;-76
2023/06/13 12:51:25;;;;;;;;;;;35.50;33.60;;;;;;5016864;28;19974;-76
2023/06/13 12:53:50;;;;;;;;;;;35.70;34.00;;;;;;5034402;28;19908;-76
2023/06/13 12:56:18;;;;;;;;;;;36.00;33.80;;;;;;5034368;28;20356;-76
2023/06/13 12:58:44;;;;;;;;;;;35.90;33.80;;;;;;5016415;28;19956;-75
2023/06/13 13:01:09;;;;;;;;;;;35.50;33.00;;;;;;5034194;28;19960;-76
2023/06/13 13:03:35;;;;;;;;;;;36.10;33.90;;;;;;5034175;28;20375;-76
2023/06/13 13:06:02;;;;;;;;;;;36.50;34.00;;;;;;5034267;28;20280;-76
2023/06/13 13:08:30;;;;;;;;;;;36.50;33.70;;;;;;5034143;28;19905;-76
2023/06/13 13:10:56;;;;;;;;;;;36.30;32.30;;;;;;5016342;28;19909;-76
2023/06/13 13:13:21;;;;;;;;;;;36.40;33.30;;;;;;5033991;28;19934;-76
2023/06/13 13:15:47;;;;;;;;;;;36.30;32.90;;;;;;5034145;28;19912;-76
2023/06/13 13:18:13;;;;;;;;;;;36.50;33.50;;;;;;5034318;28;19916;-76
2023/06/13 13:20:39;;;;;;;;;;;36.70;34.20;;;;;;5033870;28;19988;-76
2023/06/13 13:23:05;;;;;;;;;;;37.10;32.80;;;;;;5033979;28;20360;-76
2023/06/13 13:25:32;;;;;;;;;;;36.90;32.10;;;;;;5016170;28;19906;-76
2023/06/13 13:27:57;;;;;;;;;;;36.90;32.90;;;;;;5033753;28;19909;-76
2023/06/13 13:30:23;;;;;;;;;;;37.00;33.00;;;;;;5033660;28;19955;-76
2023/06/13 13:32:51;;;;;;;;;;;37.10;32.20;;;;;;5033869;28;19912;-76
2023/06/13 13:35:20;;;;;;;;;;;37.20;31.90;;;;;;5033483;28;19948;-76
2023/06/13 13:37:46;;;;;;;;;;;37.20;32.90;;;;;;5033842;28;19919;-76
2023/06/13 13:40:11;;;;;;;;;;;37.00;31.70;;;;;;5033648;28;19935;-76
2023/06/13 13:42:38;;;;;;;;;;;36.70;33.40;;;;;;5016081;28;20024;-75
2023/06/13 13:45:04;;;;;;;;;;;36.70;32.50;;;;;;5033966;28;19905;-76
2023/06/13 13:47:29;;;;;;;;;;;36.80;33.40;;;;;;5034201;28;20356;-76
2023/06/13 13:49:57;;;;;;;;;;;36.80;32.90;;;;;;5033859;28;19909;-76
2023/06/13 13:52:23;;;;;;;;;;;36.80;33.10;;;;;;5033717;28;20386;-76
2023/06/13 13:54:48;;;;;;;;;;;36.90;32.90;;;;;;5033645;28;19905;-76
2023/06/13 13:57:14;;;;;;;;;;;37.20;33.00;;;;;;5033855;28;20253;-76
2023/06/13 13:59:39;;;;;;;;;;;37.20;32.40;;;;;;5033506;28;19932;-76
2023/06/13 14:02:05;;;;;;;;;;;37.20;33.20;;;;;;5033346;28;19996;-76
2023/06/13 14:04:32;;;;;;;;;;;37.10;33.50;;;;;;5033511;28;20372;-76
2023/06/13 14:06:57;;;;;;;;;;;37.30;32.60;;;;;;5034100;28;20253;-76
2023/06/13 14:09:23;;;;;;;;;;;36.70;32.30;;;;;;5033451;28;19956;-76
2023/06/13 14:11:48;;;;;;;;;;;36.80;33.20;;;;;;5033460;28;20265;-76
2023/06/13 14:14:14;;;;;;;;;;;36.80;33.30;;;;;;5033469;28;19912;-76
2023/06/13 14:16:39;;;;;;;;;;;36.90;33.20;;;;;;5033574;28;19912;-76